createdAt,value
2022-12-29T00:03:04.305Z,6.82
2022-12-29T00:06:10.394Z,6.83
2022-12-29T00:09:17.723Z,6.84
2022-12-29T00:12:23.011Z,6.98
2022-12-29T00:15:41.312Z,6.94
2022-12-29T00:18:46.712Z,6.89
2022-12-29T00:22:10.842Z,6.96
2022-12-29T00:25:34.827Z,6.92
2022-12-29T00:28:58.763Z,6.94
2022-12-29T00:32:22.643Z,6.86
2022-12-29T00:35:38.918Z,6.81
2022-12-29T00:39:09.291Z,6.94
2022-12-29T00:42:34.499Z,6.95
2022-12-29T00:45:42.677Z,7.02
2022-12-29T00:49:06.873Z,6.81
2022-12-29T00:52:14.398Z,6.88
2022-12-29T00:55:19.672Z,6.74
2022-12-29T00:58:25.113Z,6.75
2022-12-29T01:01:30.849Z,6.87
2022-12-29T01:04:36.210Z,6.87
2022-12-29T01:07:41.922Z,6.98
2022-12-29T01:10:47.170Z,6.93
2022-12-29T01:13:52.341Z,7.04
2022-12-29T01:16:58.409Z,7.06
2022-12-29T01:20:04.860Z,7.04
2022-12-29T01:23:10.159Z,6.94
2022-12-29T01:26:18.184Z,6.93
2022-12-29T01:29:23.705Z,7.03
2022-12-29T01:32:28.977Z,7.04
2022-12-29T01:35:34.043Z,7.15
2022-12-29T01:38:40.116Z,7.15
2022-12-29T01:41:45.350Z,7.19
2022-12-29T01:45:13.441Z,7.18
2022-12-29T01:48:21.005Z,7.24
2022-12-29T01:51:28.826Z,6.88
2022-12-29T01:54:44.052Z,6.79
2022-12-29T01:57:53.393Z,6.86
2022-12-29T02:00:59.159Z,6.91
2022-12-29T02:04:05.328Z,6.81
2022-12-29T02:07:18.277Z,6.87
2022-12-29T02:10:29.081Z,6.94
2022-12-29T02:13:35.270Z,6.81
2022-12-29T02:17:08.741Z,6.99
2022-12-29T02:20:52.508Z,7.00
2022-12-29T02:24:20.484Z,6.94
2022-12-29T02:28:02.467Z,6.62
2022-12-29T02:31:27.559Z,6.69
2022-12-29T02:34:51.061Z,6.76
2022-12-29T02:38:17.111Z,6.63
2022-12-29T02:41:43.528Z,6.63
2022-12-29T02:45:06.963Z,6.66
2022-12-29T02:48:14.624Z,6.69
2022-12-29T02:51:27.637Z,6.70
2022-12-29T02:54:42.224Z,6.82
2022-12-29T02:57:48.737Z,6.70
2022-12-29T03:01:06.355Z,6.61
2022-12-29T03:04:12.224Z,6.87
2022-12-29T03:07:41.732Z,6.78
2022-12-29T03:11:02.003Z,6.69
2022-12-29T03:14:46.267Z,6.87
2022-12-29T03:18:23.467Z,6.87
2022-12-29T03:21:59.688Z,6.70
2022-12-29T03:25:21.041Z,6.81
2022-12-29T03:28:58.705Z,6.80
2022-12-29T03:32:11.296Z,6.77
2022-12-29T03:35:22.409Z,6.59
2022-12-29T03:38:53.138Z,6.54
2022-12-29T03:42:06.924Z,6.58
2022-12-29T03:45:13.336Z,6.66
2022-12-29T03:48:18.486Z,6.62
2022-12-29T03:51:25.181Z,6.53
2022-12-29T03:54:32.379Z,6.69
2022-12-29T03:57:38.372Z,6.75
2022-12-29T04:00:46.359Z,6.89
2022-12-29T04:03:52.550Z,6.46
2022-12-29T04:06:58.516Z,6.64
2022-12-29T04:10:05.078Z,6.68
2022-12-29T04:13:13.647Z,6.81
2022-12-29T04:16:20.073Z,6.83
2022-12-29T04:19:25.725Z,6.62
2022-12-29T04:22:30.983Z,6.50
2022-12-29T04:25:36.702Z,6.48
2022-12-29T04:28:42.864Z,6.78
2022-12-29T04:31:57.049Z,6.80
2022-12-29T04:35:03.066Z,6.90
2022-12-29T04:38:08.576Z,6.87
2022-12-29T04:41:14.174Z,6.79
2022-12-29T04:44:20.763Z,6.79
2022-12-29T04:47:29.366Z,6.87
2022-12-29T04:50:43.079Z,6.86
2022-12-29T04:53:56.911Z,6.83
2022-12-29T04:57:04.139Z,6.87
2022-12-29T05:00:10.921Z,6.91
2022-12-29T05:03:16.781Z,6.81
2022-12-29T05:06:24.857Z,6.77
2022-12-29T05:09:31.208Z,6.91
2022-12-29T05:12:39.626Z,7.01
2022-12-29T05:15:54.984Z,6.99
2022-12-29T05:19:02.715Z,6.92
2022-12-29T05:22:09.359Z,6.86
2022-12-29T05:25:15.162Z,6.88
2022-12-29T05:28:33.145Z,6.86
2022-12-29T05:31:51.763Z,6.88
2022-12-29T05:34:57.544Z,6.79
2022-12-29T05:38:04.715Z,6.82
2022-12-29T05:41:11.103Z,6.96
2022-12-29T05:44:39.756Z,6.74
2022-12-29T05:47:51.567Z,6.90
2022-12-29T05:51:09.344Z,6.95
2022-12-29T05:54:29.793Z,6.80
2022-12-29T05:57:36.643Z,6.83
2022-12-29T06:00:48.517Z,6.87
2022-12-29T06:03:54.571Z,6.89
2022-12-29T06:07:00.918Z,6.87
2022-12-29T06:10:32.639Z,6.82
2022-12-29T06:13:43.921Z,6.64
2022-12-29T06:16:49.835Z,6.53
2022-12-29T06:19:56.382Z,6.76
2022-12-29T06:23:02.230Z,6.88
2022-12-29T06:26:08.650Z,6.75
2022-12-29T06:29:17.974Z,6.83
2022-12-29T06:32:24.114Z,6.81
2022-12-29T06:35:32.415Z,6.83
2022-12-29T06:38:38.598Z,6.91
2022-12-29T06:41:43.797Z,6.83
2022-12-29T06:45:16.906Z,6.85
2022-12-29T06:48:22.819Z,6.88
2022-12-29T06:51:28.281Z,6.71
2022-12-29T06:54:34.026Z,6.87
2022-12-29T06:57:40.624Z,6.81
2022-12-29T07:00:45.804Z,6.66
2022-12-29T07:03:51.417Z,6.86
2022-12-29T07:06:57.271Z,6.96
2022-12-29T07:10:03.324Z,6.96
2022-12-29T07:13:09.457Z,7.00
2022-12-29T07:16:15.178Z,6.88
2022-12-29T07:19:21.935Z,6.89
2022-12-29T07:22:27.190Z,6.92
2022-12-29T07:25:32.231Z,6.60
2022-12-29T07:28:39.232Z,6.62
2022-12-29T07:31:44.773Z,6.78
2022-12-29T07:34:50.588Z,6.87
2022-12-29T07:37:56.226Z,6.95
2022-12-29T07:41:01.541Z,6.89
2022-12-29T07:44:07.069Z,7.06
2022-12-29T07:47:36.027Z,7.10
2022-12-29T07:50:41.783Z,7.19
2022-12-29T07:53:47.204Z,7.17
2022-12-29T07:56:52.814Z,7.15
2022-12-29T07:59:58.870Z,7.21
2022-12-29T08:03:04.450Z,7.29
2022-12-29T08:06:12.072Z,7.31
2022-12-29T08:09:22.245Z,7.19
2022-12-29T08:12:28.666Z,7.25
2022-12-29T08:15:34.024Z,7.29
2022-12-29T08:18:39.345Z,7.34
2022-12-29T08:21:44.648Z,7.32
2022-12-29T08:24:50.208Z,7.32
2022-12-29T08:27:55.519Z,7.39
2022-12-29T08:31:02.923Z,7.36
2022-12-29T08:34:08.580Z,7.08
2022-12-29T08:37:14.567Z,7.04
2022-12-29T08:40:20.121Z,7.33
2022-12-29T08:43:26.584Z,7.50
2022-12-29T08:46:32.131Z,7.48
2022-12-29T08:49:37.768Z,7.31
2022-12-29T08:52:43.520Z,7.55
2022-12-29T08:56:03.684Z,7.57
2022-12-29T08:59:15.190Z,7.74
2022-12-29T09:02:24.282Z,7.95
2022-12-29T09:05:30.753Z,7.95
2022-12-29T09:08:36.133Z,8.11
2022-12-29T09:11:43.027Z,8.11
2022-12-29T09:14:49.001Z,8.00
2022-12-29T09:17:56.529Z,8.08
2022-12-29T09:21:05.276Z,8.25
2022-12-29T09:24:10.648Z,7.77
2022-12-29T09:27:16.494Z,7.83
2022-12-29T09:30:24.287Z,8.03
2022-12-29T09:33:30.060Z,8.03
2022-12-29T09:36:35.742Z,8.16
2022-12-29T09:39:41.824Z,8.03
2022-12-29T09:43:02.653Z,8.22
2022-12-29T09:46:46.455Z,8.30
2022-12-29T09:50:00.344Z,8.32
2022-12-29T09:53:20.236Z,8.30
2022-12-29T09:56:27.808Z,8.34
2022-12-29T09:59:42.356Z,8.25
2022-12-29T10:02:56.404Z,8.22
2022-12-29T10:06:15.379Z,8.21
2022-12-29T10:09:44.253Z,8.18
2022-12-29T10:13:18.899Z,8.18
2022-12-29T10:16:42.971Z,8.31
2022-12-29T10:20:03.517Z,8.20
2022-12-29T10:23:32.861Z,8.36
2022-12-29T10:26:43.992Z,8.26
2022-12-29T10:30:00.882Z,8.54
2022-12-29T10:33:11.814Z,8.65
2022-12-29T10:36:36.263Z,8.64
2022-12-29T10:39:51.154Z,8.73
2022-12-29T10:42:58.656Z,8.82
2022-12-29T10:46:10.521Z,8.85
2022-12-29T10:49:21.932Z,8.82
2022-12-29T10:52:30.077Z,8.82
2022-12-29T10:55:39.462Z,8.74
2022-12-29T10:58:50.354Z,8.74
2022-12-29T11:02:20.957Z,9.03
2022-12-29T11:05:48.363Z,9.03
2022-12-29T11:09:00.486Z,8.88
2022-12-29T11:12:26.778Z,9.02
2022-12-29T11:15:51.889Z,8.77
2022-12-29T11:18:57.599Z,8.79
2022-12-29T11:22:23.304Z,8.82
2022-12-29T11:25:29.078Z,8.78
2022-12-29T11:28:34.968Z,8.86
2022-12-29T11:31:53.841Z,8.88
2022-12-29T11:35:00.111Z,8.94
2022-12-29T11:38:06.659Z,8.86
2022-12-29T11:41:14.866Z,8.80
2022-12-29T11:44:20.382Z,8.83
2022-12-29T11:47:34.160Z,8.78
2022-12-29T11:50:43.131Z,8.75
2022-12-29T11:53:53.949Z,8.78
2022-12-29T11:57:11.068Z,8.76
2022-12-29T12:00:22.978Z,8.73
2022-12-29T12:03:32.291Z,8.75
2022-12-29T12:07:02.959Z,8.91
2022-12-29T12:10:23.907Z,8.92
2022-12-29T12:14:03.879Z,8.99
2022-12-29T12:18:01.533Z,8.86
2022-12-29T12:21:45.791Z,8.83
2022-12-29T12:25:08.216Z,8.93
2022-12-29T12:28:41.343Z,8.91
2022-12-29T12:31:48.895Z,8.84
2022-12-29T12:34:54.386Z,8.83
2022-12-29T12:38:37.302Z,8.86
2022-12-29T12:42:24.406Z,8.67
2022-12-29T12:45:48.453Z,8.69
2022-12-29T12:49:31.230Z,8.82
2022-12-29T12:52:51.577Z,8.79
2022-12-29T12:56:33.968Z,8.86
2022-12-29T12:59:48.266Z,8.88
2022-12-29T13:03:12.033Z,8.81
2022-12-29T13:06:39.369Z,8.80
2022-12-29T13:10:21.383Z,8.77
2022-12-29T13:13:57.520Z,8.68
2022-12-29T13:17:06.185Z,8.80
2022-12-29T13:20:21.984Z,8.81
2022-12-29T13:23:37.170Z,8.83
2022-12-29T13:26:59.264Z,8.84
2022-12-29T13:30:30.822Z,8.68
2022-12-29T13:33:42.762Z,8.61
2022-12-29T13:37:08.644Z,8.60
2022-12-29T13:40:21.356Z,8.57
2022-12-29T13:43:31.289Z,8.55
2022-12-29T13:46:44.183Z,8.75
2022-12-29T13:49:51.554Z,8.77
2022-12-29T13:53:27.632Z,8.69
2022-12-29T13:56:51.518Z,8.67
2022-12-29T14:00:05.441Z,8.66
2022-12-29T14:03:30.500Z,8.66
2022-12-29T14:06:42.199Z,8.68
2022-12-29T14:09:54.004Z,8.68
2022-12-29T14:13:05.071Z,8.58
2022-12-29T14:16:49.609Z,8.57
2022-12-29T14:19:55.587Z,8.58
2022-12-29T14:23:17.699Z,8.56
2022-12-29T14:26:32.123Z,8.60
2022-12-29T14:29:40.261Z,8.57
2022-12-29T14:33:04.528Z,8.41
2022-12-29T14:36:28.457Z,8.46
2022-12-29T14:39:45.639Z,8.51
2022-12-29T14:42:54.992Z,8.46
2022-12-29T14:46:03.269Z,8.48
2022-12-29T14:49:18.322Z,8.50
2022-12-29T14:52:30.058Z,8.53
2022-12-29T14:55:53.146Z,8.54
2022-12-29T14:59:04.456Z,8.38
2022-12-29T15:02:39.991Z,8.37
2022-12-29T15:06:09.689Z,8.32
2022-12-29T15:09:40.195Z,8.24
2022-12-29T15:12:55.317Z,8.27
2022-12-29T15:16:00.972Z,8.25
2022-12-29T15:19:23.987Z,8.40
2022-12-29T15:22:31.540Z,8.34
2022-12-29T15:25:37.611Z,8.47
2022-12-29T15:28:46.735Z,8.43
2022-12-29T15:31:52.015Z,8.32
2022-12-29T15:35:04.262Z,8.33
2022-12-29T15:38:28.110Z,8.31
2022-12-29T15:42:03.721Z,8.41
2022-12-29T15:45:13.890Z,8.39
2022-12-29T15:48:24.112Z,8.27
2022-12-29T15:51:34.946Z,8.38
2022-12-29T15:54:44.193Z,8.33
2022-12-29T15:57:50.092Z,8.33
2022-12-29T16:01:03.131Z,8.17
2022-12-29T16:04:10.771Z,8.24
2022-12-29T16:07:41.138Z,8.15
2022-12-29T16:10:46.977Z,8.29
2022-12-29T16:13:55.257Z,8.21
2022-12-29T16:17:05.338Z,8.17
2022-12-29T16:20:42.099Z,8.30
2022-12-29T16:23:51.892Z,8.23
2022-12-29T16:27:07.803Z,8.22
2022-12-29T16:30:27.949Z,8.35
2022-12-29T16:33:50.817Z,8.38
2022-12-29T16:37:00.130Z,8.45
2022-12-29T16:40:34.611Z,8.36
2022-12-29T16:43:43.675Z,8.42
2022-12-29T16:47:12.861Z,8.26
2022-12-29T16:50:28.303Z,8.35
2022-12-29T16:53:38.741Z,8.20
2022-12-29T16:56:46.293Z,8.21
2022-12-29T16:59:54.322Z,8.20
2022-12-29T17:03:02.158Z,8.34
2022-12-29T17:06:16.625Z,8.21
2022-12-29T17:09:27.097Z,8.24
2022-12-29T17:12:35.760Z,8.16
2022-12-29T17:15:41.479Z,8.17
2022-12-29T17:18:46.993Z,8.19
2022-12-29T17:21:52.393Z,8.14
2022-12-29T17:25:00.143Z,8.23
2022-12-29T17:28:21.360Z,8.17
2022-12-29T17:31:26.863Z,8.18
2022-12-29T17:34:32.913Z,8.11
2022-12-29T17:37:38.587Z,8.04
2022-12-29T17:40:44.528Z,8.08
2022-12-29T17:43:50.033Z,8.07
2022-12-29T17:46:55.172Z,8.12
2022-12-29T17:50:00.699Z,8.01
2022-12-29T17:53:11.263Z,7.90
2022-12-29T17:56:16.622Z,7.99
2022-12-29T17:59:21.801Z,7.92
2022-12-29T18:02:31.808Z,7.93
2022-12-29T18:05:37.307Z,7.69
2022-12-29T18:08:42.911Z,7.73
2022-12-29T18:11:48.622Z,7.68
2022-12-29T18:14:56.012Z,7.72
2022-12-29T18:18:18.515Z,7.79
2022-12-29T18:21:25.699Z,7.91
2022-12-29T18:24:31.617Z,7.72
2022-12-29T18:27:37.196Z,7.78
2022-12-29T18:30:42.719Z,7.61
2022-12-29T18:33:50.816Z,7.80
2022-12-29T18:36:56.785Z,7.65
2022-12-29T18:40:02.745Z,7.60
2022-12-29T18:43:08.539Z,7.65
2022-12-29T18:46:20.507Z,7.63
2022-12-29T18:49:28.993Z,7.71
2022-12-29T18:52:35.102Z,7.74
2022-12-29T18:55:41.138Z,7.73
2022-12-29T18:58:47.197Z,7.60
2022-12-29T19:01:53.057Z,7.73
2022-12-29T19:05:06.806Z,7.86
2022-12-29T19:08:13.770Z,7.82
2022-12-29T19:11:20.073Z,7.78
2022-12-29T19:14:25.846Z,7.81
2022-12-29T19:17:31.324Z,7.71
2022-12-29T19:20:40.168Z,7.52
2022-12-29T19:23:45.839Z,7.60
2022-12-29T19:26:51.239Z,7.68
2022-12-29T19:29:56.208Z,7.60
2022-12-29T19:33:09.629Z,7.68
2022-12-29T19:36:18.258Z,7.62
2022-12-29T19:39:23.588Z,7.67
2022-12-29T19:42:29.211Z,7.61
2022-12-29T19:45:34.589Z,7.81
2022-12-29T19:48:40.076Z,7.75
2022-12-29T19:51:45.657Z,7.75
2022-12-29T19:54:51.135Z,7.67
2022-12-29T19:57:56.534Z,7.47
2022-12-29T20:01:10.458Z,7.69
2022-12-29T20:04:15.919Z,7.57
2022-12-29T20:07:23.038Z,7.44
2022-12-29T20:10:28.529Z,7.50
2022-12-29T20:13:35.313Z,7.49
2022-12-29T20:17:02.515Z,7.49
2022-12-29T20:20:08.110Z,7.43
2022-12-29T20:23:13.557Z,7.34
2022-12-29T20:26:22.380Z,7.41
2022-12-29T20:29:27.753Z,7.40
2022-12-29T20:32:35.866Z,7.31
2022-12-29T20:35:41.202Z,7.36
2022-12-29T20:38:48.096Z,7.30
2022-12-29T20:41:53.403Z,7.37
2022-12-29T20:44:58.484Z,7.49
2022-12-29T20:48:03.778Z,7.50
2022-12-29T20:51:09.762Z,7.44
2022-12-29T20:54:16.291Z,7.49
2022-12-29T20:57:21.852Z,7.53
2022-12-29T21:00:30.703Z,7.35
2022-12-29T21:03:36.780Z,7.24
2022-12-29T21:06:42.494Z,7.24
2022-12-29T21:09:48.011Z,7.28
2022-12-29T21:12:53.508Z,7.42
2022-12-29T21:16:02.596Z,7.31
2022-12-29T21:19:08.397Z,7.22
2022-12-29T21:22:13.827Z,7.33
2022-12-29T21:25:19.359Z,7.30
2022-12-29T21:28:25.200Z,7.39
2022-12-29T21:31:37.191Z,7.44
2022-12-29T21:34:42.933Z,7.47
2022-12-29T21:37:48.447Z,7.40
2022-12-29T21:40:54.022Z,7.56
2022-12-29T21:44:18.707Z,7.57
2022-12-29T21:47:24.158Z,7.28
2022-12-29T21:50:29.590Z,7.35
2022-12-29T21:53:38.143Z,7.33
2022-12-29T21:56:48.057Z,7.47
2022-12-29T22:00:12.477Z,7.58
2022-12-29T22:03:36.466Z,7.39
2022-12-29T22:06:59.858Z,7.51
2022-12-29T22:10:23.888Z,7.46
2022-12-29T22:13:31.914Z,7.55
2022-12-29T22:16:37.208Z,7.51
2022-12-29T22:19:42.905Z,7.65
2022-12-29T22:22:48.747Z,7.45
2022-12-29T22:25:54.619Z,7.55
2022-12-29T22:29:00.053Z,7.52
2022-12-29T22:32:05.793Z,7.57
2022-12-29T22:35:12.556Z,7.67
2022-12-29T22:38:18.265Z,7.51
2022-12-29T22:41:24.629Z,7.63
2022-12-29T22:44:30.938Z,7.68
2022-12-29T22:47:36.645Z,7.61
2022-12-29T22:50:43.429Z,7.73
2022-12-29T22:53:51.025Z,7.57
2022-12-29T22:56:56.310Z,7.64
2022-12-29T23:00:01.679Z,7.53
2022-12-29T23:03:07.456Z,7.52
2022-12-29T23:06:16.461Z,7.51
2022-12-29T23:09:23.243Z,7.47
2022-12-29T23:12:32.655Z,7.45
2022-12-29T23:15:38.375Z,7.46
2022-12-29T23:18:47.340Z,7.49
2022-12-29T23:21:52.748Z,7.41
2022-12-29T23:24:58.283Z,7.57
2022-12-29T23:28:06.168Z,7.49
2022-12-29T23:31:12.322Z,7.44
2022-12-29T23:34:18.722Z,7.63
2022-12-29T23:37:24.570Z,7.53
2022-12-29T23:40:30.025Z,7.40
2022-12-29T23:43:36.289Z,7.55
2022-12-29T23:46:42.351Z,7.43
2022-12-29T23:49:48.181Z,7.37
2022-12-29T23:52:53.821Z,7.42
2022-12-29T23:55:59.723Z,7.44
2022-12-29T23:59:06.581Z,7.58
